createdAt,value
2022-12-08T00:00:50.842Z,100885.31
2022-12-08T00:03:17.952Z,100880.38
2022-12-08T00:06:08.028Z,100887.06
2022-12-08T00:08:53.339Z,100884.56
2022-12-08T00:11:20.314Z,100879.06
2022-12-08T00:13:47.156Z,100869.25
2022-12-08T00:16:14.817Z,100853.09
2022-12-08T00:18:41.702Z,100860.78
2022-12-08T00:21:08.830Z,100860.13
2022-12-08T00:23:35.703Z,100843.88
2022-12-08T00:26:06.884Z,100850.00
2022-12-08T00:28:34.649Z,100849.28
2022-12-08T00:31:08.726Z,100835.34
2022-12-08T00:33:35.741Z,100837.91
2022-12-08T00:36:10.762Z,100834.91
2022-12-08T00:38:38.962Z,100834.09
2022-12-08T00:41:17.422Z,100828.34
2022-12-08T00:43:44.623Z,100820.47
2022-12-08T00:46:12.207Z,100805.41
2022-12-08T00:48:39.346Z,100807.22
2022-12-08T00:51:06.740Z,100810.63
2022-12-08T00:53:33.548Z,100802.13
2022-12-08T00:56:00.532Z,100804.22
2022-12-08T00:58:27.450Z,100802.31
2022-12-08T01:00:54.311Z,100814.50
2022-12-08T01:03:21.356Z,100800.09
2022-12-08T01:05:48.265Z,100801.69
2022-12-08T01:08:15.116Z,100800.25
2022-12-08T01:10:42.788Z,100797.03
2022-12-08T01:13:09.720Z,100785.84
2022-12-08T01:15:37.149Z,100780.19
2022-12-08T01:18:04.230Z,100783.19
2022-12-08T01:20:31.171Z,100782.97
2022-12-08T01:22:57.956Z,100785.34
2022-12-08T01:25:24.756Z,100767.81
2022-12-08T01:27:52.715Z,100769.44
2022-12-08T01:30:20.398Z,100775.97
2022-12-08T01:32:47.471Z,100777.41
2022-12-08T01:35:14.843Z,100770.97
2022-12-08T01:37:41.678Z,100769.38
2022-12-08T01:40:08.905Z,100765.66
2022-12-08T01:42:38.388Z,100765.03
2022-12-08T01:45:21.332Z,100771.59
2022-12-08T01:47:52.535Z,100772.19
2022-12-08T01:50:20.770Z,100772.88
2022-12-08T01:52:52.378Z,100769.53
2022-12-08T01:55:36.896Z,100766.94
2022-12-08T01:58:13.462Z,100753.91
2022-12-08T02:00:40.484Z,100753.72
2022-12-08T02:03:12.031Z,100751.59
2022-12-08T02:05:40.542Z,100733.97
2022-12-08T02:08:10.284Z,100743.31
2022-12-08T02:10:40.464Z,100758.41
2022-12-08T02:13:11.176Z,100774.31
2022-12-08T02:16:08.982Z,100798.81
2022-12-08T02:18:42.970Z,100787.00
2022-12-08T02:21:28.862Z,100770.66
2022-12-08T02:24:35.255Z,100761.38
2022-12-08T02:27:28.080Z,100756.72
2022-12-08T02:30:10.207Z,100759.16
2022-12-08T02:33:09.469Z,100754.66
2022-12-08T02:35:38.998Z,100756.28
2022-12-08T02:38:29.583Z,100779.50
2022-12-08T02:41:17.520Z,100781.75
2022-12-08T02:44:06.750Z,100774.63
2022-12-08T02:46:57.433Z,100760.06
2022-12-08T02:49:32.856Z,100747.63
2022-12-08T02:52:28.862Z,100726.47
2022-12-08T02:55:24.652Z,100719.03
2022-12-08T02:57:56.966Z,100716.78
2022-12-08T03:00:27.765Z,100709.97
2022-12-08T03:03:23.843Z,100701.06
2022-12-08T03:06:05.752Z,100700.53
2022-12-08T03:08:38.861Z,100698.53
2022-12-08T03:11:45.237Z,100704.03
2022-12-08T03:14:16.978Z,100692.75
2022-12-08T03:16:48.806Z,100681.34
2022-12-08T03:19:24.335Z,100685.69
2022-12-08T03:22:00.417Z,100689.13
2022-12-08T03:24:27.631Z,100684.00
2022-12-08T03:27:05.650Z,100691.06
2022-12-08T03:29:33.372Z,100688.22
2022-12-08T03:32:20.395Z,100696.25
2022-12-08T03:34:49.530Z,100700.47
2022-12-08T03:37:16.908Z,100690.59
2022-12-08T03:39:44.517Z,100703.25
2022-12-08T03:42:11.326Z,100703.66
2022-12-08T03:44:38.155Z,100705.75
2022-12-08T03:47:05.418Z,100706.94
2022-12-08T03:49:32.244Z,100705.13
2022-12-08T03:51:59.178Z,100701.00
2022-12-08T03:54:26.209Z,100706.75
2022-12-08T03:56:52.998Z,100702.22
2022-12-08T03:59:20.079Z,100699.41
2022-12-08T04:01:46.943Z,100696.56
2022-12-08T04:04:14.343Z,100701.06
2022-12-08T04:06:41.130Z,100701.56
2022-12-08T04:09:07.979Z,100699.34
2022-12-08T04:11:34.789Z,100690.88
2022-12-08T04:14:01.792Z,100695.63
2022-12-08T04:16:28.968Z,100694.13
2022-12-08T04:18:55.990Z,100692.03
2022-12-08T04:21:23.018Z,100681.66
2022-12-08T04:23:49.945Z,100673.69
2022-12-08T04:26:16.861Z,100676.56
2022-12-08T04:28:43.743Z,100681.53
2022-12-08T04:31:10.847Z,100698.59
2022-12-08T04:33:37.862Z,100683.00
2022-12-08T04:36:05.833Z,100681.22
2022-12-08T04:38:33.670Z,100694.50
2022-12-08T04:41:01.235Z,100674.84
2022-12-08T04:43:28.414Z,100678.94
2022-12-08T04:45:55.305Z,100676.25
2022-12-08T04:48:22.176Z,100668.97
2022-12-08T04:50:49.216Z,100662.66
2022-12-08T04:53:16.111Z,100669.47
2022-12-08T04:55:44.825Z,100667.88
2022-12-08T04:58:16.592Z,100663.53
2022-12-08T05:00:44.377Z,100667.88
2022-12-08T05:03:11.313Z,100663.13
2022-12-08T05:05:38.217Z,100662.81
2022-12-08T05:08:05.786Z,100663.00
2022-12-08T05:10:33.117Z,100661.41
2022-12-08T05:13:00.956Z,100658.25
2022-12-08T05:15:28.132Z,100653.00
2022-12-08T05:17:56.345Z,100651.28
2022-12-08T05:20:23.351Z,100656.72
2022-12-08T05:22:50.248Z,100658.16
2022-12-08T05:25:17.262Z,100653.53
2022-12-08T05:27:44.269Z,100651.91
2022-12-08T05:30:11.461Z,100646.47
2022-12-08T05:32:38.305Z,100656.53
2022-12-08T05:35:05.713Z,100659.25
2022-12-08T05:37:32.978Z,100669.22
2022-12-08T05:40:00.466Z,100676.94
2022-12-08T05:42:27.374Z,100663.94
2022-12-08T05:44:54.271Z,100667.28
2022-12-08T05:47:21.271Z,100659.63
2022-12-08T05:49:48.419Z,100661.22
2022-12-08T05:52:16.922Z,100648.09
2022-12-08T05:54:44.362Z,100650.09
2022-12-08T05:57:11.665Z,100646.28
2022-12-08T05:59:39.170Z,100640.91
2022-12-08T06:02:06.715Z,100639.38
2022-12-08T06:04:33.644Z,100639.84
2022-12-08T06:07:00.442Z,100632.94
2022-12-08T06:09:27.840Z,100633.06
2022-12-08T06:11:54.812Z,100629.47
2022-12-08T06:14:21.743Z,100628.28
2022-12-08T06:16:48.570Z,100632.16
2022-12-08T06:19:15.996Z,100631.59
2022-12-08T06:21:43.040Z,100628.28
2022-12-08T06:24:09.913Z,100627.91
2022-12-08T06:26:37.070Z,100627.19
2022-12-08T06:29:04.961Z,100624.09
2022-12-08T06:31:32.549Z,100625.59
2022-12-08T06:33:59.506Z,100626.94
2022-12-08T06:36:28.336Z,100623.53
2022-12-08T06:38:55.613Z,100624.53
2022-12-08T06:41:22.495Z,100633.66
2022-12-08T06:43:49.299Z,100635.69
2022-12-08T06:46:19.020Z,100635.25
2022-12-08T06:48:46.468Z,100639.69
2022-12-08T06:51:16.027Z,100643.81
2022-12-08T06:53:44.170Z,100644.22
2022-12-08T06:56:12.454Z,100642.31
2022-12-08T06:58:39.438Z,100641.88
2022-12-08T07:01:09.712Z,100645.94
2022-12-08T07:03:37.591Z,100651.44
2022-12-08T07:06:05.181Z,100644.22
2022-12-08T07:08:34.888Z,100656.03
2022-12-08T07:11:09.771Z,100653.31
2022-12-08T07:13:37.140Z,100654.78
2022-12-08T07:16:11.900Z,100661.41
2022-12-08T07:18:39.674Z,100652.75
2022-12-08T07:21:09.206Z,100656.88
2022-12-08T07:23:36.613Z,100662.34
2022-12-08T07:26:06.008Z,100643.59
2022-12-08T07:28:34.619Z,100648.75
2022-12-08T07:31:01.761Z,100647.41
2022-12-08T07:33:29.386Z,100652.53
2022-12-08T07:35:58.577Z,100654.22
2022-12-08T07:38:25.709Z,100651.28
2022-12-08T07:40:53.166Z,100650.50
2022-12-08T07:43:20.762Z,100652.69
2022-12-08T07:45:47.843Z,100650.28
2022-12-08T07:48:14.810Z,100650.28
2022-12-08T07:50:41.779Z,100660.03
2022-12-08T07:53:09.161Z,100656.22
2022-12-08T07:55:40.710Z,100648.53
2022-12-08T07:58:07.995Z,100658.69
2022-12-08T08:00:34.997Z,100655.38
2022-12-08T08:03:02.795Z,100659.72
2022-12-08T08:05:29.888Z,100662.63
2022-12-08T08:07:56.722Z,100666.66
2022-12-08T08:10:23.717Z,100663.25
2022-12-08T08:12:50.681Z,100668.91
2022-12-08T08:15:19.235Z,100666.47
2022-12-08T08:17:53.614Z,100661.72
2022-12-08T08:20:21.433Z,100662.53
2022-12-08T08:22:50.134Z,100661.13
2022-12-08T08:25:22.958Z,100660.13
2022-12-08T08:27:49.864Z,100669.66
2022-12-08T08:30:20.706Z,100670.25
2022-12-08T08:32:49.180Z,100667.03
2022-12-08T08:35:16.461Z,100678.91
2022-12-08T08:37:48.495Z,100673.31
2022-12-08T08:40:17.250Z,100676.56
2022-12-08T08:42:43.999Z,100668.66
2022-12-08T08:45:11.276Z,100669.88
2022-12-08T08:47:38.222Z,100669.69
2022-12-08T08:50:07.903Z,100679.03
2022-12-08T08:52:34.941Z,100672.00
2022-12-08T08:55:03.988Z,100675.94
2022-12-08T08:57:30.798Z,100669.88
2022-12-08T08:59:57.602Z,100674.19
2022-12-08T09:02:25.473Z,100672.78
2022-12-08T09:04:53.086Z,100678.53
2022-12-08T09:07:20.102Z,100677.44
2022-12-08T09:09:47.033Z,100675.81
2022-12-08T09:12:14.018Z,100674.59
2022-12-08T09:14:42.267Z,100674.31
2022-12-08T09:17:09.216Z,100670.91
2022-12-08T09:19:36.075Z,100670.69
2022-12-08T09:22:03.076Z,100669.88
2022-12-08T09:24:29.964Z,100669.38
2022-12-08T09:26:56.951Z,100669.66
2022-12-08T09:29:24.540Z,100668.06
2022-12-08T09:31:52.061Z,100671.28
2022-12-08T09:34:18.898Z,100675.31
2022-12-08T09:36:45.756Z,100658.63
2022-12-08T09:39:12.865Z,100665.56
2022-12-08T09:41:49.910Z,100670.59
2022-12-08T09:44:31.716Z,100685.47
2022-12-08T09:47:00.864Z,100681.53
2022-12-08T09:49:38.380Z,100677.81
2022-12-08T09:52:12.882Z,100680.94
2022-12-08T09:54:39.893Z,100680.19
2022-12-08T09:57:15.373Z,100675.03
2022-12-08T09:59:48.259Z,100678.34
2022-12-08T10:02:23.819Z,100677.81
2022-12-08T10:04:51.329Z,100685.88
2022-12-08T10:07:38.073Z,100681.44
2022-12-08T10:10:32.157Z,100683.50
2022-12-08T10:13:17.568Z,100687.38
2022-12-08T10:16:21.185Z,100689.69
2022-12-08T10:19:17.529Z,100687.66
2022-12-08T10:21:45.176Z,100686.59
2022-12-08T10:24:22.947Z,100689.19
2022-12-08T10:26:50.100Z,100694.00
2022-12-08T10:29:17.170Z,100692.22
2022-12-08T10:31:45.663Z,100699.16
2022-12-08T10:34:21.945Z,100692.78
2022-12-08T10:36:52.235Z,100691.72
2022-12-08T10:39:45.674Z,100689.38
2022-12-08T10:42:18.631Z,100694.72
2022-12-08T10:44:57.763Z,100696.06
2022-12-08T10:47:26.995Z,100686.69
2022-12-08T10:50:31.963Z,100700.63
2022-12-08T10:53:12.879Z,100697.44
2022-12-08T10:55:51.479Z,100695.41
2022-12-08T10:58:34.189Z,100702.22
2022-12-08T11:01:21.634Z,100693.25
2022-12-08T11:04:18.929Z,100695.53
2022-12-08T11:06:47.632Z,100688.16
2022-12-08T11:09:20.502Z,100693.63
2022-12-08T11:12:06.557Z,100695.06
2022-12-08T11:14:42.274Z,100690.56
2022-12-08T11:17:24.917Z,100692.41
2022-12-08T11:19:59.482Z,100689.31
2022-12-08T11:22:29.260Z,100680.00
2022-12-08T11:25:13.206Z,100686.38
2022-12-08T11:27:45.700Z,100690.34
2022-12-08T11:30:17.866Z,100695.81
2022-12-08T11:32:48.261Z,100685.75
2022-12-08T11:35:27.100Z,100680.19
2022-12-08T11:38:08.121Z,100679.25
2022-12-08T11:40:44.715Z,100675.41
2022-12-08T11:43:30.267Z,100669.31
2022-12-08T11:46:02.525Z,100675.56
2022-12-08T11:48:33.691Z,100665.78
2022-12-08T11:51:12.310Z,100667.84
2022-12-08T11:53:50.830Z,100668.50
2022-12-08T11:56:27.886Z,100664.97
2022-12-08T11:58:59.490Z,100667.13
2022-12-08T12:01:27.071Z,100666.50
2022-12-08T12:04:29.577Z,100663.44
2022-12-08T12:07:26.527Z,100663.28
2022-12-08T12:10:07.404Z,100658.81
2022-12-08T12:13:19.142Z,100655.06
2022-12-08T12:16:01.409Z,100665.38
2022-12-08T12:18:38.738Z,100664.56
2022-12-08T12:21:19.384Z,100662.78
2022-12-08T12:23:48.290Z,100664.25
2022-12-08T12:26:23.982Z,100674.03
2022-12-08T12:29:03.225Z,100666.78
2022-12-08T12:31:43.173Z,100673.53
2022-12-08T12:34:25.281Z,100668.69
2022-12-08T12:37:03.808Z,100669.22
2022-12-08T12:39:34.173Z,100670.66
2022-12-08T12:42:05.502Z,100671.94
2022-12-08T12:44:32.807Z,100672.91
2022-12-08T12:47:08.672Z,100669.72
2022-12-08T12:49:43.796Z,100668.75
2022-12-08T12:52:10.666Z,100663.94
2022-12-08T12:54:42.856Z,100666.97
2022-12-08T12:57:09.564Z,100662.78
2022-12-08T12:59:50.090Z,100664.25
2022-12-08T13:02:31.442Z,100660.88
2022-12-08T13:05:11.372Z,100656.69
2022-12-08T13:07:46.675Z,100652.22
2022-12-08T13:10:21.914Z,100650.94
2022-12-08T13:13:02.179Z,100648.38
2022-12-08T13:15:41.648Z,100649.31
2022-12-08T13:18:20.290Z,100649.97
2022-12-08T13:20:51.885Z,100647.72
2022-12-08T13:23:41.359Z,100643.72
2022-12-08T13:26:18.634Z,100654.44
2022-12-08T13:29:08.676Z,100656.22
2022-12-08T13:31:48.312Z,100658.94
2022-12-08T13:34:32.007Z,100652.03
2022-12-08T13:37:10.845Z,100648.16
2022-12-08T13:39:40.570Z,100647.69
2022-12-08T13:42:32.741Z,100658.75
2022-12-08T13:45:48.796Z,100649.75
2022-12-08T13:48:59.099Z,100657.66
2022-12-08T13:53:22.434Z,100648.16
2022-12-08T13:57:24.474Z,100643.84
2022-12-08T13:59:51.612Z,100645.94
2022-12-08T14:02:26.815Z,100649.66
2022-12-08T14:05:17.311Z,100637.13
2022-12-08T14:07:43.132Z,100635.66
2022-12-08T14:10:18.794Z,100647.16
2022-12-08T14:12:48.063Z,100642.50
2022-12-08T14:15:16.056Z,100649.88
2022-12-08T14:17:51.993Z,100652.31
2022-12-08T14:20:29.842Z,100643.31
2022-12-08T14:22:57.834Z,100641.38
2022-12-08T14:25:26.856Z,100646.66
2022-12-08T14:28:03.130Z,100643.75
2022-12-08T14:30:34.717Z,100651.13
2022-12-08T14:33:05.659Z,100654.31
2022-12-08T14:35:33.746Z,100658.50
2022-12-08T14:38:02.933Z,100660.31
2022-12-08T14:40:41.881Z,100661.94
2022-12-08T14:43:08.831Z,100653.41
2022-12-08T14:45:41.718Z,100652.25
2022-12-08T14:48:36.711Z,100658.47
2022-12-08T14:51:03.518Z,100655.53
2022-12-08T14:53:39.748Z,100653.56
2022-12-08T14:56:18.873Z,100655.41
2022-12-08T14:58:46.954Z,100651.63
2022-12-08T15:01:17.477Z,100660.19
2022-12-08T15:03:50.599Z,100651.78
2022-12-08T15:06:21.120Z,100651.72
2022-12-08T15:08:59.028Z,100651.47
2022-12-08T15:11:35.417Z,100650.28
2022-12-08T15:14:03.084Z,100655.03
2022-12-08T15:16:38.379Z,100662.13
2022-12-08T15:19:16.976Z,100670.34
2022-12-08T15:21:45.375Z,100663.00
2022-12-08T15:24:13.816Z,100661.50
2022-12-08T15:26:50.476Z,100659.78
2022-12-08T15:29:23.695Z,100661.22
2022-12-08T15:31:52.886Z,100657.50
2022-12-08T15:34:20.813Z,100650.06
2022-12-08T15:36:49.911Z,100651.59
2022-12-08T15:39:43.873Z,100659.22
2022-12-08T15:42:15.556Z,100654.38
2022-12-08T15:44:42.757Z,100663.34
2022-12-08T15:47:22.408Z,100660.44
2022-12-08T15:49:50.608Z,100662.34
2022-12-08T15:52:20.175Z,100670.56
2022-12-08T15:54:47.625Z,100666.16
2022-12-08T16:00:54.704Z,100673.25
2022-12-08T16:07:04.712Z,100665.28
2022-12-08T16:09:17.563Z,100664.66
2022-12-08T16:12:08.518Z,100671.78
2022-12-08T16:17:25.298Z,100674.16
2022-12-08T16:19:52.179Z,100670.63
2022-12-08T16:25:24.520Z,100672.03
2022-12-08T16:28:44.823Z,100675.28
2022-12-08T16:30:41.885Z,100677.16
2022-12-08T16:33:11.417Z,100684.28
2022-12-08T16:35:38.797Z,100682.97
2022-12-08T16:38:05.935Z,100683.63
2022-12-08T16:40:33.043Z,100689.44
2022-12-08T16:42:59.958Z,100683.19
2022-12-08T16:45:30.607Z,100690.00
2022-12-08T16:48:01.352Z,100693.00
2022-12-08T16:50:33.970Z,100697.41
2022-12-08T16:53:09.865Z,100690.75
2022-12-08T16:55:36.896Z,100687.22
2022-12-08T16:58:03.809Z,100690.50
2022-12-08T17:00:39.465Z,100689.69
2022-12-08T17:03:10.913Z,100683.56
2022-12-08T17:05:40.412Z,100694.41
2022-12-08T17:08:08.172Z,100688.19
2022-12-08T17:10:39.400Z,100697.63
2022-12-08T17:13:06.948Z,100700.34
2022-12-08T17:15:33.860Z,100698.13
2022-12-08T17:18:00.863Z,100698.38
2022-12-08T17:20:29.218Z,100698.13
2022-12-08T17:22:58.222Z,100703.56
2022-12-08T17:25:26.671Z,100704.66
2022-12-08T17:27:53.847Z,100703.25
2022-12-08T17:30:20.713Z,100705.69
2022-12-08T17:32:47.558Z,100702.75
2022-12-08T17:35:15.415Z,100696.31
2022-12-08T17:37:43.593Z,100698.81
2022-12-08T17:40:11.290Z,100696.16
2022-12-08T17:42:38.930Z,100695.13
2022-12-08T17:45:07.387Z,100696.00
2022-12-08T17:47:34.555Z,100686.28
2022-12-08T17:50:02.426Z,100687.06
2022-12-08T17:52:29.523Z,100688.75
2022-12-08T17:54:56.459Z,100689.63
2022-12-08T17:57:23.702Z,100678.78
2022-12-08T17:59:50.589Z,100685.50
2022-12-08T18:02:17.608Z,100680.91
2022-12-08T18:04:44.503Z,100689.91
2022-12-08T18:07:11.304Z,100679.22
2022-12-08T18:09:38.262Z,100674.94
2022-12-08T18:12:05.681Z,100678.22
2022-12-08T18:14:32.602Z,100679.31
2022-12-08T18:16:59.505Z,100684.16
2022-12-08T18:19:26.640Z,100677.44
2022-12-08T18:21:53.641Z,100682.56
2022-12-08T18:24:23.207Z,100685.31
2022-12-08T18:26:52.604Z,100681.34
2022-12-08T18:29:21.148Z,100680.03
2022-12-08T18:31:48.360Z,100675.44
2022-12-08T18:34:15.514Z,100677.34
2022-12-08T18:36:42.462Z,100683.25
2022-12-08T18:39:24.671Z,100681.44
2022-12-08T18:41:52.545Z,100681.19
2022-12-08T18:44:19.545Z,100685.78
2022-12-08T18:46:46.539Z,100686.13
2022-12-08T18:49:15.931Z,100692.13
2022-12-08T18:51:43.813Z,100691.38
2022-12-08T18:54:11.733Z,100694.66
2022-12-08T18:56:38.943Z,100698.22
2022-12-08T18:59:08.719Z,100690.69
2022-12-08T19:01:37.853Z,100688.50
2022-12-08T19:06:54.436Z,100692.63
2022-12-08T19:09:22.697Z,100699.94
2022-12-08T19:11:49.734Z,100688.31
2022-12-08T19:14:16.854Z,100695.31
2022-12-08T19:16:43.818Z,100695.31
2022-12-08T19:19:10.672Z,100687.50
2022-12-08T19:21:43.035Z,100700.47
2022-12-08T19:24:13.129Z,100702.88
2022-12-08T19:26:40.003Z,100696.59
2022-12-08T19:29:07.299Z,100697.94
2022-12-08T19:31:34.336Z,100698.75
2022-12-08T19:34:01.231Z,100702.19
2022-12-08T19:36:31.804Z,100700.00
2022-12-08T19:39:18.099Z,100695.16
2022-12-08T19:42:03.958Z,100699.59
2022-12-08T19:44:50.033Z,100704.53
2022-12-08T19:47:16.932Z,100692.69
2022-12-08T19:49:43.794Z,100694.88
2022-12-08T19:52:10.952Z,100705.97
2022-12-08T19:54:38.211Z,100693.81
2022-12-08T19:57:05.315Z,100703.78
2022-12-08T19:59:32.361Z,100703.78
2022-12-08T20:01:59.352Z,100696.47
2022-12-08T20:04:27.452Z,100700.56
2022-12-08T20:06:55.956Z,100698.41
2022-12-08T20:09:23.256Z,100697.59
2022-12-08T20:11:54.832Z,100697.38
2022-12-08T20:14:23.380Z,100702.78
2022-12-08T20:16:50.735Z,100705.50
2022-12-08T20:19:17.841Z,100698.75
2022-12-08T20:21:44.773Z,100707.47
2022-12-08T20:24:11.685Z,100712.94
2022-12-08T20:26:38.545Z,100705.97
2022-12-08T20:29:05.651Z,100709.22
2022-12-08T20:31:33.496Z,100710.06
2022-12-08T20:34:01.569Z,100704.44
2022-12-08T20:36:28.694Z,100707.91
2022-12-08T20:38:55.927Z,100703.38
2022-12-08T20:41:26.039Z,100705.25
2022-12-08T20:43:53.289Z,100711.75
2022-12-08T20:46:21.243Z,100715.00
2022-12-08T20:48:48.797Z,100714.44
2022-12-08T20:51:19.665Z,100711.22
2022-12-08T20:53:47.729Z,100713.69
2022-12-08T20:56:17.964Z,100717.22
2022-12-08T20:58:46.040Z,100726.94
2022-12-08T21:01:15.514Z,100723.69
2022-12-08T21:03:43.624Z,100724.78
2022-12-08T21:06:11.846Z,100720.97
2022-12-08T21:08:38.904Z,100722.34
2022-12-08T21:11:07.165Z,100721.84
2022-12-08T21:13:34.314Z,100724.50
2022-12-08T21:16:01.442Z,100728.53
2022-12-08T21:18:28.848Z,100721.78
2022-12-08T21:21:05.842Z,100731.53
2022-12-08T21:23:33.661Z,100731.00
2022-12-08T21:26:01.584Z,100729.09
2022-12-08T21:28:28.588Z,100723.97
2022-12-08T21:30:55.456Z,100725.31
2022-12-08T21:33:22.529Z,100725.88
2022-12-08T21:35:49.941Z,100731.34
2022-12-08T21:38:16.822Z,100728.69
2022-12-08T21:40:43.647Z,100728.44
2022-12-08T21:43:12.131Z,100729.78
2022-12-08T21:45:39.083Z,100734.94
2022-12-08T21:48:11.281Z,100735.72
2022-12-08T21:50:39.388Z,100737.09
2022-12-08T21:53:06.557Z,100741.66
2022-12-08T21:55:33.486Z,100743.56
2022-12-08T21:58:02.574Z,100743.56
2022-12-08T22:00:29.495Z,100739.78
2022-12-08T22:02:57.650Z,100736.00
2022-12-08T22:05:25.389Z,100737.38
2022-12-08T22:07:52.353Z,100745.53
2022-12-08T22:10:21.053Z,100737.22
2022-12-08T22:12:48.339Z,100735.34
2022-12-08T22:15:15.440Z,100734.81
2022-12-08T22:17:44.015Z,100729.97
2022-12-08T22:20:14.653Z,100729.44
2022-12-08T22:22:41.839Z,100732.97
2022-12-08T22:25:13.247Z,100737.53
2022-12-08T22:27:41.538Z,100742.38
2022-12-08T22:30:09.752Z,100736.13
2022-12-08T22:32:37.168Z,100739.88
2022-12-08T22:35:04.420Z,100742.56
2022-12-08T22:37:31.222Z,100739.88
2022-12-08T22:39:58.108Z,100738.53
2022-12-08T22:42:25.232Z,100742.84
2022-12-08T22:44:52.237Z,100735.28
2022-12-08T22:47:19.313Z,100738.50
2022-12-08T22:49:46.333Z,100734.22
2022-12-08T22:52:13.149Z,100733.69
2022-12-08T22:54:40.033Z,100729.88
2022-12-08T22:57:07.242Z,100727.75
2022-12-08T22:59:34.657Z,100728.56
2022-12-08T23:02:01.793Z,100731.28
2022-12-08T23:04:29.209Z,100731.28
2022-12-08T23:06:56.340Z,100724.84
2022-12-08T23:09:23.978Z,100724.84
2022-12-08T23:11:51.522Z,100729.97
2022-12-08T23:14:18.665Z,100729.41
2022-12-08T23:16:45.696Z,100723.50
2022-12-08T23:19:14.140Z,100718.91
2022-12-08T23:21:40.926Z,100729.16
2022-12-08T23:24:07.785Z,100731.31
2022-12-08T23:26:35.584Z,100725.16
2022-12-08T23:29:02.500Z,100734.09
2022-12-08T23:31:29.408Z,100727.88
2022-12-08T23:33:57.034Z,100730.31
2022-12-08T23:36:26.501Z,100727.41
2022-12-08T23:38:54.249Z,100732.28
2022-12-08T23:41:22.046Z,100727.41
2022-12-08T23:43:51.304Z,100729.31
2022-12-08T23:46:20.571Z,100731.44
2022-12-08T23:48:48.016Z,100729.28
2022-12-08T23:51:16.076Z,100730.06
2022-12-08T23:53:44.065Z,100724.91
2022-12-08T23:56:13.992Z,100717.34
2022-12-08T23:58:42.197Z,100718.38
